Time;durP1;ratioP1;P1;durP2;ratioP2;P2;SDS_P1;SDS_P2;PMS_P1;PMS_P2;Temp;Humidity;BMP_temperature;BMP_pressure;BME280_temperature;BME280_humidity;BME280_pressure;Samples;Min_cycle;Max_cycle;Signal;HPM_P1;HPM_P2
2022/08/16 00:00:45;;;;;;;2.1;1.7;;;;;;;;;;;;;
2022/08/16 00:03:10;;;;;;;1.3;1.2;;;;;;;;;;;;;
2022/08/16 00:05:36;;;;;;;1.5;1.4;;;;;;;;;;;;;
2022/08/16 00:08:01;;;;;;;2;1.7;;;;;;;;;;;;;
2022/08/16 00:10:27;;;;;;;2;1.5;;;;;;;;;;;;;
2022/08/16 00:12:52;;;;;;;1.4;1.3;;;;;;;;;;;;;
2022/08/16 00:15:20;;;;;;;1.7;1.4;;;;;;;;;;;;;
2022/08/16 00:17:45;;;;;;;1.5;1.4;;;;;;;;;;;;;
2022/08/16 00:20:10;;;;;;;1.4;1.3;;;;;;;;;;;;;
2022/08/16 00:22:35;;;;;;;1.5;1.4;;;;;;;;;;;;;
2022/08/16 00:25:00;;;;;;;1.6;1.5;;;;;;;;;;;;;
2022/08/16 00:27:25;;;;;;;1.4;1.1;;;;;;;;;;;;;
2022/08/16 00:29:53;;;;;;;1.9;1.4;;;;;;;;;;;;;
2022/08/16 00:32:16;;;;;;;1.2;1.1;;;;;;;;;;;;;
2022/08/16 00:34:43;;;;;;;1.6;1.5;;;;;;;;;;;;;
2022/08/16 00:37:07;;;;;;;2;1.2;;;;;;;;;;;;;
2022/08/16 00:39:34;;;;;;;1.7;1.2;;;;;;;;;;;;;
2022/08/16 00:41:59;;;;;;;1.7;1.3;;;;;;;;;;;;;
2022/08/16 00:44:26;;;;;;;1.3;1.2;;;;;;;;;;;;;
2022/08/16 00:46:51;;;;;;;1.6;1.5;;;;;;;;;;;;;
2022/08/16 00:49:16;;;;;;;2.3;1.3;;;;;;;;;;;;;
2022/08/16 00:51:41;;;;;;;1.6;1.3;;;;;;;;;;;;;
2022/08/16 00:54:06;;;;;;;2.3;1.5;;;;;;;;;;;;;
2022/08/16 00:56:32;;;;;;;1.4;1.3;;;;;;;;;;;;;
2022/08/16 00:58:57;;;;;;;1.6;1.5;;;;;;;;;;;;;
2022/08/16 01:01:24;;;;;;;1.6;1.5;;;;;;;;;;;;;
2022/08/16 01:03:49;;;;;;;2.2;1.6;;;;;;;;;;;;;
2022/08/16 01:06:14;;;;;;;1.6;1.5;;;;;;;;;;;;;
2022/08/16 01:08:39;;;;;;;1.7;1.4;;;;;;;;;;;;;
2022/08/16 01:11:05;;;;;;;1.5;1.4;;;;;;;;;;;;;
2022/08/16 01:13:30;;;;;;;1.4;1.3;;;;;;;;;;;;;
2022/08/16 01:15:57;;;;;;;1.8;1.5;;;;;;;;;;;;;
2022/08/16 01:18:23;;;;;;;1.4;1.3;;;;;;;;;;;;;
2022/08/16 01:20:48;;;;;;;1.5;1.4;;;;;;;;;;;;;
2022/08/16 01:23:13;;;;;;;1.8;1.4;;;;;;;;;;;;;
2022/08/16 01:25:38;;;;;;;1.7;1.6;;;;;;;;;;;;;
2022/08/16 01:28:03;;;;;;;2.2;1.7;;;;;;;;;;;;;
2022/08/16 01:30:29;;;;;;;2.9;1.6;;;;;;;;;;;;;
2022/08/16 01:32:54;;;;;;;2.8;1.8;;;;;;;;;;;;;
2022/08/16 01:35:19;;;;;;;1.6;1.5;;;;;;;;;;;;;
2022/08/16 01:37:46;;;;;;;1.5;1.4;;;;;;;;;;;;;
2022/08/16 01:40:11;;;;;;;2.3;1.6;;;;;;;;;;;;;
2022/08/16 01:42:37;;;;;;;2.6;1.8;;;;;;;;;;;;;
2022/08/16 01:45:02;;;;;;;2.1;1.9;;;;;;;;;;;;;
2022/08/16 01:47:30;;;;;;;1.7;1.6;;;;;;;;;;;;;
2022/08/16 01:49:55;;;;;;;1.9;1.7;;;;;;;;;;;;;
2022/08/16 01:52:21;;;;;;;2;1.8;;;;;;;;;;;;;
2022/08/16 01:54:45;;;;;;;2;1.6;;;;;;;;;;;;;
2022/08/16 01:57:11;;;;;;;1.8;1.7;;;;;;;;;;;;;
2022/08/16 01:59:36;;;;;;;2;1.7;;;;;;;;;;;;;
2022/08/16 02:02:02;;;;;;;2;1.5;;;;;;;;;;;;;
2022/08/16 02:04:27;;;;;;;2.4;1.7;;;;;;;;;;;;;
2022/08/16 02:06:53;;;;;;;1.6;1.5;;;;;;;;;;;;;
2022/08/16 02:09:18;;;;;;;1.7;1.6;;;;;;;;;;;;;
2022/08/16 02:11:45;;;;;;;2.2;1.5;;;;;;;;;;;;;
2022/08/16 02:14:10;;;;;;;2.6;1.9;;;;;;;;;;;;;
2022/08/16 02:16:38;;;;;;;2;1.5;;;;;;;;;;;;;
2022/08/16 02:19:02;;;;;;;1.8;1.7;;;;;;;;;;;;;
2022/08/16 02:21:27;;;;;;;1.9;1.8;;;;;;;;;;;;;
2022/08/16 02:23:52;;;;;;;1.8;1.7;;;;;;;;;;;;;
2022/08/16 02:26:18;;;;;;;2;1.6;;;;;;;;;;;;;
2022/08/16 02:28:43;;;;;;;3;1.7;;;;;;;;;;;;;
2022/08/16 02:31:09;;;;;;;4;1.8;;;;;;;;;;;;;
2022/08/16 02:33:34;;;;;;;1.7;1.6;;;;;;;;;;;;;
2022/08/16 02:36:00;;;;;;;2.2;1.9;;;;;;;;;;;;;
2022/08/16 02:38:25;;;;;;;1.9;1.5;;;;;;;;;;;;;
2022/08/16 02:40:52;;;;;;;2.6;1.6;;;;;;;;;;;;;
2022/08/16 02:43:17;;;;;;;3.1;1.7;;;;;;;;;;;;;
2022/08/16 02:45:43;;;;;;;1.9;1.8;;;;;;;;;;;;;
2022/08/16 02:48:09;;;;;;;1.7;1.6;;;;;;;;;;;;;
2022/08/16 02:50:35;;;;;;;2.5;1.7;;;;;;;;;;;;;
2022/08/16 02:53:00;;;;;;;1.8;1.7;;;;;;;;;;;;;
2022/08/16 02:55:25;;;;;;;1.7;1.6;;;;;;;;;;;;;
2022/08/16 02:57:50;;;;;;;1.6;1.5;;;;;;;;;;;;;
2022/08/16 03:00:18;;;;;;;2.2;1.8;;;;;;;;;;;;;
2022/08/16 03:02:43;;;;;;;2.5;1.7;;;;;;;;;;;;;
2022/08/16 03:05:09;;;;;;;2.4;2;;;;;;;;;;;;;
2022/08/16 03:07:33;;;;;;;2.2;1.7;;;;;;;;;;;;;
2022/08/16 03:09:59;;;;;;;2.3;2;;;;;;;;;;;;;
2022/08/16 03:12:25;;;;;;;2.5;2;;;;;;;;;;;;;
2022/08/16 03:14:50;;;;;;;2.1;1.9;;;;;;;;;;;;;
2022/08/16 03:17:16;;;;;;;3.2;2.3;;;;;;;;;;;;;
2022/08/16 03:19:42;;;;;;;2;1.8;;;;;;;;;;;;;
2022/08/16 03:22:07;;;;;;;2;1.6;;;;;;;;;;;;;
2022/08/16 03:24:33;;;;;;;2.4;2.2;;;;;;;;;;;;;
2022/08/16 03:26:58;;;;;;;2.2;2;;;;;;;;;;;;;
2022/08/16 03:29:26;;;;;;;2;1.8;;;;;;;;;;;;;
2022/08/16 03:31:50;;;;;;;2.5;2;;;;;;;;;;;;;
2022/08/16 03:34:15;;;;;;;2.1;1.9;;;;;;;;;;;;;
2022/08/16 03:36:40;;;;;;;2.2;1.9;;;;;;;;;;;;;
2022/08/16 03:39:06;;;;;;;4.6;2;;;;;;;;;;;;;
2022/08/16 03:41:31;;;;;;;2.4;2.2;;;;;;;;;;;;;
2022/08/16 03:43:58;;;;;;;2.6;2.4;;;;;;;;;;;;;
2022/08/16 03:46:23;;;;;;;2.1;2;;;;;;;;;;;;;
2022/08/16 03:48:49;;;;;;;5;3.8;;;;;;;;;;;;;
2022/08/16 03:51:14;;;;;;;6.4;4.5;;;;;;;;;;;;;
2022/08/16 03:53:40;;;;;;;11.1;7.1;;;;;;;;;;;;;
2022/08/16 03:56:06;;;;;;;8.5;4.8;;;;;;;;;;;;;
2022/08/16 03:58:32;;;;;;;5.8;4.1;;;;;;;;;;;;;
2022/08/16 04:02:34;;;;;;;5.5;3.6;;;;;;;13.92;95.81836;933.6867;;;;
2022/08/16 04:05:04;;;;;;;3.5;2.7;;;;;;;13.8;96.37988;933.7358;;;;
2022/08/16 04:07:28;;;;;;;3.2;2.7;;;;;;;13.92;96.22168;933.7043;;;;
2022/08/16 04:09:56;;;;;;;5.5;2.8;;;;;;;13.94;95.5459;933.6322;;;;
2022/08/16 04:12:21;;;;;;;2.5;2.1;;;;;;;13.93;95.60156;933.7026;;;;
2022/08/16 04:14:51;;;;;;;2.5;2.3;;;;;;;14.04;94.95996;933.7346;;;;
2022/08/16 04:17:16;;;;;;;2.3;2.1;;;;;;;14.03;94.94434;933.7379;;;;
2022/08/16 04:19:45;;;;;;;3.4;2.1;;;;;;;14.08;94.4502;933.7004;;;;
2022/08/16 04:22:31;;;;;;;2.5;2;;;;;;;14.13;94.12598;933.7023;;;;
2022/08/16 04:25:00;;;;;;;3.9;1.9;;;;;;;14.13;93.64258;933.7166;;;;
2022/08/16 04:27:24;;;;;;;2.1;1.6;;;;;;;14.09;93.59082;933.7083;;;;
2022/08/16 04:29:50;;;;;;;3.2;2.1;;;;;;;14.11;93.43359;933.7673;;;;
2022/08/16 04:32:21;;;;;;;2.2;2;;;;;;;14.03;93.59766;933.7442;;;;
2022/08/16 04:34:51;;;;;;;3.6;2.1;;;;;;;14.04;93.56543;933.7738;;;;
2022/08/16 04:37:16;;;;;;;3.4;2.1;;;;;;;13.91;94.2168;933.7502;;;;
2022/08/16 04:39:45;;;;;;;4.3;2.4;;;;;;;13.97;93.79199;933.7255;;;;
2022/08/16 04:42:10;;;;;;;3.1;2;;;;;;;14.06;93.39844;933.7695;;;;
2022/08/16 04:44:35;;;;;;;1.9;1.7;;;;;;;14.13;93.05566;933.7328;;;;
2022/08/16 04:47:05;;;;;;;3.7;1.9;;;;;;;14.14;92.80371;933.7574;;;;
2022/08/16 04:49:35;;;;;;;2.8;1.9;;;;;;;14.08;92.95313;933.7541;;;;
2022/08/16 04:52:06;;;;;;;2.6;1.9;;;;;;;14.16;92.52148;933.8508;;;;
2022/08/16 04:54:36;;;;;;;4.9;2.2;;;;;;;14.17;92.46582;933.8459;;;;
2022/08/16 04:57:02;;;;;;;5;2.1;;;;;;;14.22;92.17773;933.8633;;;;
2022/08/16 04:59:27;;;;;;;2.2;1.8;;;;;;;14.19;92.40039;933.8233;;;;
2022/08/16 05:01:58;;;;;;;3.3;2;;;;;;;14.18;92.20313;933.889;;;;
2022/08/16 05:04:27;;;;;;;3.2;2.1;;;;;;;14.14;92.81543;933.8552;;;;
2022/08/16 05:06:52;;;;;;;3.7;2;;;;;;;14.13;93.55176;933.884;;;;
2022/08/16 05:09:19;;;;;;;2.9;2.1;;;;;;;14.19;93.44629;933.9011;;;;
2022/08/16 05:11:43;;;;;;;2.2;2;;;;;;;14.1;94.08594;933.8677;;;;
2022/08/16 05:14:10;;;;;;;2.4;1.8;;;;;;;14.19;94.02246;933.9139;;;;
2022/08/16 05:16:35;;;;;;;2.5;2.1;;;;;;;14.18;93.80176;933.9099;;;;
2022/08/16 05:19:03;;;;;;;4.2;2.4;;;;;;;14.17;93.98633;933.9285;;;;
2022/08/16 05:21:30;;;;;;;2.6;2.2;;;;;;;14.14;94.68262;933.8879;;;;
2022/08/16 05:23:54;;;;;;;4.1;2.8;;;;;;;14.25;94.5332;933.8445;;;;
2022/08/16 05:26:20;;;;;;;4;1.7;;;;;;;14.36;93.74805;933.9041;;;;
2022/08/16 05:29:34;;;;;;;3.9;1.9;;;;;;;14.43;93.59277;933.863;;;;
2022/08/16 05:32:04;;;;;;;1.9;1.8;;;;;;;14.49;92.96875;933.8775;;;;
2022/08/16 05:34:28;;;;;;;3.4;2.3;;;;;;;14.64;94.12207;933.9495;;;;
2022/08/16 05:40:21;;;;;;;1.9;1.7;;;;;;;17.99;79.48926;933.8136;;;;
2022/08/16 05:42:50;;;;;;;5;1.7;;;;;;;19.23;73.31738;933.7896;;;;
2022/08/16 05:45:22;;;;;;;3.8;1.5;;;;;;;20.42;68.98438;933.7899;;;;
2022/08/16 05:47:49;;;;;;;2.8;1.8;;;;;;;21.19;63.81641;933.7836;;;;
2022/08/16 05:50:14;;;;;;;1.7;1.5;;;;;;;21.58;63.1709;933.8543;;;;
2022/08/16 05:52:42;;;;;;;1.9;1.6;;;;;;;21.62;61.30176;933.9305;;;;
2022/08/16 05:55:07;;;;;;;1.3;1.2;;;;;;;21.44;62.36719;933.9049;;;;
2022/08/16 05:57:34;;;;;;;2.3;1.5;;;;;;;22.34;60.18262;933.911;;;;
2022/08/16 05:59:59;;;;;;;1.3;1.2;;;;;;;22.78;57.82324;933.949;;;;
2022/08/16 06:02:30;;;;;;;1.5;1.4;;;;;;;23.82;54.54688;934.0041;;;;
2022/08/16 06:04:53;;;;;;;2.2;1.4;;;;;;;23.14;56.8252;933.9426;;;;
2022/08/16 06:07:22;;;;;;;1.4;1.3;;;;;;;22.67;58.24414;933.9628;;;;
2022/08/16 06:09:47;;;;;;;1.5;1.4;;;;;;;23.4;55.11719;933.956;;;;
2022/08/16 06:12:14;;;;;;;2.9;1.3;;;;;;;22.99;57.63867;933.9661;;;;
2022/08/16 06:14:39;;;;;;;1.3;1.2;;;;;;;23.87;55.68164;933.9803;;;;
2022/08/16 06:17:05;;;;;;;1.7;1;;;;;;;24.36;52.44434;933.9658;;;;
2022/08/16 06:19:31;;;;;;;1.5;1.1;;;;;;;25.22;51.04688;933.8942;;;;
2022/08/16 06:21:57;;;;;;;2.3;1.3;;;;;;;25.24;49.61914;933.9498;;;;
2022/08/16 06:24:23;;;;;;;1.5;1.3;;;;;;;25.08;50.19238;933.9289;;;;
2022/08/16 06:26:48;;;;;;;1.4;1.2;;;;;;;26.43;47.49023;933.9933;;;;
2022/08/16 06:29:14;;;;;;;2.2;1.3;;;;;;;27.05;47.81738;933.8992;;;;
2022/08/16 06:31:40;;;;;;;1.4;1.3;;;;;;;27.38;44.38867;933.9016;;;;
2022/08/16 06:34:06;;;;;;;1.5;1.2;;;;;;;28.37;42.72656;933.9096;;;;
2022/08/16 06:36:31;;;;;;;1.2;1.1;;;;;;;28.08;42.62891;933.8607;;;;
2022/08/16 06:45:26;;;;;;;1.3;1.2;;;;;;;26.81;44.72363;933.8423;;;;
2022/08/16 06:48:00;;;;;;;2.9;1.1;;;;;;;27.96;43.16309;933.9109;;;;
2022/08/16 06:50:31;;;;;;;1.5;1.1;;;;;;;27.37;43.84277;933.8427;;;;
2022/08/16 06:53:00;;;;;;;1.3;1.1;;;;;;;27.9;45.73535;933.8772;;;;
2022/08/16 06:55:25;;;;;;;1.4;1;;;;;;;27.38;43.78418;933.8028;;;;
2022/08/16 06:57:53;;;;;;;2.6;1.2;;;;;;;27.92;43.56348;933.8317;;;;
2022/08/16 07:00:18;;;;;;;1.4;1.3;;;;;;;28.09;43.25879;933.7637;;;;
2022/08/16 07:02:47;;;;;;;2.4;1.2;;;;;;;28.16;42.44531;933.7355;;;;
2022/08/16 07:05:20;;;;;;;1.9;1.4;;;;;;;27.18;45.76758;933.7361;;;;
2022/08/16 07:07:47;;;;;;;2.3;1.4;;;;;;;28.76;41.63281;933.7248;;;;
2022/08/16 07:10:12;;;;;;;5.1;1.6;;;;;;;26.33;46.58105;933.7037;;;;
2022/08/16 07:12:40;;;;;;;1.3;1.2;;;;;;;27.23;45.26465;933.7025;;;;
2022/08/16 07:15:05;;;;;;;1.2;1.1;;;;;;;29.3;41.59961;933.7;;;;
2022/08/16 07:17:32;;;;;;;1.1;1.1;;;;;;;28.98;41.41504;933.6719;;;;
2022/08/16 07:19:57;;;;;;;1.1;1.1;;;;;;;29.4;40.04785;933.6412;;;;
2022/08/16 07:22:22;;;;;;;1.3;1.2;;;;;;;30.05;39.10352;933.6002;;;;
2022/08/16 07:24:52;;;;;;;1;1;;;;;;;30.31;38.94727;933.5966;;;;
2022/08/16 07:27:16;;;;;;;1.7;1.4;;;;;;;30.59;39.41309;933.5872;;;;
2022/08/16 07:29:48;;;;;;;1.8;1.1;;;;;;;29.26;40.58398;933.5706;;;;
2022/08/16 07:32:19;;;;;;;1.4;1.3;;;;;;;27.49;44.81543;933.6033;;;;
2022/08/16 07:34:42;;;;;;;1.2;1.1;;;;;;;28.95;41.72266;933.6136;;;;
2022/08/16 07:37:11;;;;;;;1.6;1.3;;;;;;;30.52;39.23926;933.5736;;;;
2022/08/16 07:39:43;;;;;;;3.2;1.4;;;;;;;31.06;37.79199;933.5218;;;;
2022/08/16 07:42:12;;;;;;;2.2;1.2;;;;;;;31.49;36.84668;933.5719;;;;
2022/08/16 07:44:37;;;;;;;1;0.9;;;;;;;31.1;36.86133;933.5608;;;;
2022/08/16 07:47:05;;;;;;;1.5;1.3;;;;;;;31.27;37.33008;933.5488;;;;
2022/08/16 07:49:30;;;;;;;2.6;1.1;;;;;;;31.44;37.57227;933.5723;;;;
2022/08/16 07:51:57;;;;;;;1.9;1.2;;;;;;;32.02;35.87109;933.5396;;;;
2022/08/16 07:54:22;;;;;;;0.9;0.9;;;;;;;32.43;35.14746;933.5942;;;;
2022/08/16 07:56:49;;;;;;;2.1;1.4;;;;;;;32.3;34.53711;933.6002;;;;
2022/08/16 07:59:14;;;;;;;1;1;;;;;;;33.15;35.45508;933.6014;;;;
2022/08/16 08:01:42;;;;;;;1.6;1.2;;;;;;;32.68;35.17773;933.6464;;;;
2022/08/16 08:04:09;;;;;;;1.1;1.1;;;;;;;32.88;32.81641;933.6255;;;;
2022/08/16 08:06:32;;;;;;;1.4;1.3;;;;;;;32.28;34.59668;933.5923;;;;
2022/08/16 08:08:58;;;;;;;1.3;1.2;;;;;;;31.34;35.70996;933.6103;;;;
2022/08/16 08:11:23;;;;;;;1.1;1;;;;;;;32.29;34.22461;933.5463;;;;
2022/08/16 08:13:52;;;;;;;1.2;1.1;;;;;;;33.7;32.65918;933.5383;;;;
2022/08/16 08:16:22;;;;;;;1.3;1.2;;;;;;;33.29;32.66602;933.5861;;;;
2022/08/16 08:18:47;;;;;;;1.3;1.2;;;;;;;34.53;32.17676;933.5528;;;;
2022/08/16 08:21:12;;;;;;;1.8;0.9;;;;;;;35.54;30.30273;933.5352;;;;
2022/08/16 08:23:37;;;;;;;1.2;1.2;;;;;;;36.37;28.32422;933.5892;;;;
2022/08/16 08:26:05;;;;;;;1.2;1.1;;;;;;;34.87;30.66895;933.5474;;;;
2022/08/16 08:28:30;;;;;;;4.8;1.1;;;;;;;35.53;28.28418;933.5031;;;;
2022/08/16 08:30:57;;;;;;;1.1;1;;;;;;;36.31;29.12012;933.5325;;;;
2022/08/16 08:33:22;;;;;;;1;1;;;;;;;34.54;29.70605;933.478;;;;
2022/08/16 08:35:48;;;;;;;1;0.9;;;;;;;36.24;27.94238;933.4741;;;;
2022/08/16 08:38:15;;;;;;;1.3;1.2;;;;;;;37.09;28.28418;933.514;;;;
2022/08/16 08:40:39;;;;;;;1.4;1.1;;;;;;;36;28.09668;933.4028;;;;
2022/08/16 08:43:09;;;;;;;1.1;0.9;;;;;;;33.63;31.63184;933.3911;;;;
2022/08/16 08:45:30;;;;;;;1;1;;;;;;;32.85;32.32129;933.3524;;;;
2022/08/16 08:47:58;;;;;;;1.4;1;;;;;;;33.01;32.17676;933.3764;;;;
2022/08/16 08:50:23;;;;;;;1.2;1.1;;;;;;;33.24;31.23145;933.413;;;;
2022/08/16 08:52:53;;;;;;;1.1;1;;;;;;;33.51;30.72168;933.3325;;;;
2022/08/16 08:55:25;;;;;;;1.1;1;;;;;;;33.33;31.00977;933.36;;;;
2022/08/16 08:57:47;;;;;;;1.5;1.1;;;;;;;34.02;30.96094;933.3431;;;;
2022/08/16 09:00:16;;;;;;;2.2;1;;;;;;;32.15;31.66113;933.3422;;;;
2022/08/16 09:02:41;;;;;;;1;1;;;;;;;31.85;33.72461;933.3988;;;;
2022/08/16 09:05:11;;;;;;;1.1;1;;;;;;;33.57;31.43555;933.3538;;;;
2022/08/16 09:07:37;;;;;;;0.9;0.9;;;;;;;34.75;28.66016;933.2919;;;;
2022/08/16 09:10:02;;;;;;;1.4;1;;;;;;;33.43;29.30957;933.317;;;;
2022/08/16 09:12:27;;;;;;;1;1;;;;;;;33.29;29.8291;933.3478;;;;
2022/08/16 09:14:52;;;;;;;1.1;1.1;;;;;;;33.03;31.43359;933.2927;;;;
2022/08/16 09:17:17;;;;;;;1;1;;;;;;;31.38;34.32422;933.2805;;;;
2022/08/16 09:19:44;;;;;;;1.1;1;;;;;;;30.9;33.94043;933.243;;;;
2022/08/16 09:22:10;;;;;;;1;0.9;;;;;;;32.21;33.18848;933.2486;;;;
2022/08/16 09:24:38;;;;;;;1.3;1.2;;;;;;;33.61;31.49805;933.2217;;;;
2022/08/16 09:27:03;;;;;;;1.6;1.1;;;;;;;34.32;29.80078;933.1892;;;;
2022/08/16 09:29:32;;;;;;;1.3;1.2;;;;;;;34.45;30.36328;933.1694;;;;
2022/08/16 09:32:02;;;;;;;0.9;0.9;;;;;;;34.9;29.76563;933.1457;;;;
2022/08/16 09:34:32;;;;;;;1.1;1.1;;;;;;;34.34;32.39258;933.1174;;;;
2022/08/16 09:36:56;;;;;;;1.1;1.1;;;;;;;32.84;32.93359;933.1275;;;;
2022/08/16 09:39:41;;;;;;;1.4;1.2;;;;;;;32.86;31.35059;933.0927;;;;
2022/08/16 09:42:06;;;;;;;3.2;1.7;;;;;;;31.02;35.875;933.017;;;;
2022/08/16 09:44:31;;;;;;;2;1.3;;;;;;;30.96;35.15332;933.0684;;;;
2022/08/16 09:46:58;;;;;;;4.6;2.2;;;;;;;30.62;36.13086;933.0275;;;;
2022/08/16 09:49:24;;;;;;;5;2.6;;;;;;;31.12;35.60742;933.0294;;;;
2022/08/16 09:51:53;;;;;;;1.2;1.1;;;;;;;30.66;37.36328;933.0491;;;;
2022/08/16 09:54:17;;;;;;;3.4;1.5;;;;;;;30.08;35.97949;933.0072;;;;
2022/08/16 09:56:44;;;;;;;4;1.9;;;;;;;29.16;37.85938;933.0076;;;;
2022/08/16 09:59:10;;;;;;;3.3;1.6;;;;;;;29.25;38.95117;932.9808;;;;
2022/08/16 10:01:40;;;;;;;1.5;1.4;;;;;;;29.55;40.3125;932.9899;;;;
2022/08/16 10:04:04;;;;;;;1.3;1.2;;;;;;;30.13;36.1748;932.9563;;;;
2022/08/16 10:06:30;;;;;;;5.9;3.5;;;;;;;29.72;38.16797;932.933;;;;
2022/08/16 10:08:55;;;;;;;1.3;1.2;;;;;;;29.91;37.78027;932.9211;;;;
2022/08/16 10:13:49;;;;;;;1.7;1.4;;;;;;;30.6;35.60352;932.9498;;;;
2022/08/16 10:16:14;;;;;;;2.1;1.4;;;;;;;30.58;38.66016;932.9389;;;;
2022/08/16 10:18:42;;;;;;;2.7;1.4;;;;;;;30.83;37.19922;932.9738;;;;
2022/08/16 10:21:08;;;;;;;1.6;1.5;;;;;;;30.37;37.31641;932.9215;;;;
2022/08/16 10:23:35;;;;;;;1.5;1.4;;;;;;;30.01;38.83789;932.9261;;;;
2022/08/16 10:26:00;;;;;;;2.6;1.8;;;;;;;30.13;41.1748;932.9579;;;;
2022/08/16 10:28:26;;;;;;;2.4;1.6;;;;;;;29.8;38.42676;932.9406;;;;
2022/08/16 10:30:51;;;;;;;1.4;1.3;;;;;;;30.49;37.99609;932.9361;;;;
2022/08/16 10:33:18;;;;;;;2.3;1.5;;;;;;;30.38;37.05469;932.8381;;;;
2022/08/16 10:35:43;;;;;;;2;1.7;;;;;;;30.29;37.72754;932.855;;;;
2022/08/16 10:38:13;;;;;;;1.9;1.6;;;;;;;30.8;38.75;932.8649;;;;
2022/08/16 10:40:42;;;;;;;1.6;1.5;;;;;;;30.93;35.05469;932.8427;;;;
2022/08/16 10:43:07;;;;;;;1.4;1.3;;;;;;;31.37;36.25;932.8172;;;;
2022/08/16 10:45:32;;;;;;;1.9;1.6;;;;;;;31.18;37.14453;932.8714;;;;
2022/08/16 10:47:58;;;;;;;1.6;1.5;;;;;;;32.04;34.50586;932.8973;;;;
2022/08/16 10:50:24;;;;;;;1.5;1.4;;;;;;;32.41;33.72949;932.8695;;;;
2022/08/16 10:52:52;;;;;;;1.9;1.6;;;;;;;32.12;34.14063;932.8569;;;;
2022/08/16 10:55:16;;;;;;;1.8;1.7;;;;;;;31.88;35.89551;932.8801;;;;
2022/08/16 10:57:42;;;;;;;1.5;1.4;;;;;;;33.61;31.38965;932.8605;;;;
2022/08/16 11:00:09;;;;;;;1.7;1.6;;;;;;;33.53;32.02148;932.8937;;;;
2022/08/16 11:02:37;;;;;;;4.8;1.8;;;;;;;33.25;30.9209;932.8375;;;;
2022/08/16 11:05:49;;;;;;;2.9;1.8;;;;;;;33.98;30.81348;932.8516;;;;
2022/08/16 11:08:17;;;;;;;2.3;1.8;;;;;;;31.73;33.97949;932.8931;;;;
2022/08/16 11:10:42;;;;;;;1.8;1.7;;;;;;;32.59;34.16406;932.886;;;;
2022/08/16 11:13:08;;;;;;;1.6;1.5;;;;;;;32.42;32.43555;932.8428;;;;
2022/08/16 11:15:36;;;;;;;1.9;1.8;;;;;;;32.9;34.19922;932.8647;;;;
2022/08/16 11:18:01;;;;;;;1.7;1.6;;;;;;;34.32;32.0293;932.8635;;;;
2022/08/16 11:20:28;;;;;;;2.5;1.6;;;;;;;33.81;33.02832;932.8586;;;;
2022/08/16 11:22:53;;;;;;;2.3;1.8;;;;;;;35.17;31.25586;932.8533;;;;
2022/08/16 11:25:22;;;;;;;1.9;1.7;;;;;;;35.31;31.14453;932.8345;;;;
2022/08/16 11:27:47;;;;;;;2.2;1.8;;;;;;;34.72;31.08008;932.7922;;;;
2022/08/16 11:30:12;;;;;;;1.9;1.7;;;;;;;35.15;31.0625;932.8389;;;;
2022/08/16 11:32:38;;;;;;;2.4;1.9;;;;;;;33.87;31.58789;932.7957;;;;
2022/08/16 11:35:02;;;;;;;2.9;1.6;;;;;;;33.3;30.62305;932.7609;;;;
2022/08/16 11:37:27;;;;;;;2.4;1.9;;;;;;;32.82;32.4043;932.7681;;;;
2022/08/16 11:39:55;;;;;;;1.7;1.6;;;;;;;32.3;36.36035;932.7701;;;;
2022/08/16 11:42:20;;;;;;;2.5;1.7;;;;;;;33.34;33.61914;932.7335;;;;
2022/08/16 11:44:49;;;;;;;3;1.7;;;;;;;34.02;31.86328;932.7279;;;;
2022/08/16 11:47:14;;;;;;;2.1;1.7;;;;;;;33.83;31.03223;932.6877;;;;
2022/08/16 11:49:42;;;;;;;1.6;1.5;;;;;;;31.88;34.29004;932.665;;;;
2022/08/16 11:52:08;;;;;;;3;1.6;;;;;;;32.21;35.84961;932.6976;;;;
2022/08/16 11:54:34;;;;;;;1.8;1.7;;;;;;;31.95;34.13965;932.67;;;;
2022/08/16 11:56:59;;;;;;;2;1.6;;;;;;;32.35;33.93066;932.6467;;;;
2022/08/16 11:59:28;;;;;;;1.8;1.7;;;;;;;32.06;33.04492;932.6274;;;;
2022/08/16 12:01:51;;;;;;;2;1.8;;;;;;;31.36;36.4043;932.6379;;;;
2022/08/16 12:04:20;;;;;;;1.9;1.7;;;;;;;30.63;35.35449;932.6223;;;;
2022/08/16 12:06:48;;;;;;;3.2;1.9;;;;;;;29.72;38.83594;932.6351;;;;
2022/08/16 12:09:14;;;;;;;1.8;1.7;;;;;;;29.62;37.98145;932.6006;;;;
2022/08/16 12:11:43;;;;;;;3.9;1.8;;;;;;;30.04;38.16113;932.5231;;;;
2022/08/16 12:14:13;;;;;;;2;1.8;;;;;;;30.14;38.00195;932.5186;;;;
2022/08/16 12:16:45;;;;;;;2.6;1.7;;;;;;;29.88;41.18848;932.4871;;;;
2022/08/16 12:19:11;;;;;;;2;1.8;;;;;;;29.81;39.02344;932.5081;;;;
2022/08/16 12:21:36;;;;;;;1.7;1.6;;;;;;;29.55;35.9375;932.4483;;;;
2022/08/16 12:24:04;;;;;;;3;1.8;;;;;;;29.35;38.40039;932.502;;;;
2022/08/16 12:26:28;;;;;;;3.5;2.3;;;;;;;28.96;41.47363;932.4931;;;;
2022/08/16 12:28:54;;;;;;;2.3;1.9;;;;;;;28.94;40.69824;932.4874;;;;
2022/08/16 12:31:19;;;;;;;2;1.8;;;;;;;28.8;41.44727;932.5073;;;;
2022/08/16 12:33:46;;;;;;;3;1.9;;;;;;;28.6;43.03418;932.4561;;;;
2022/08/16 12:36:11;;;;;;;1.8;1.5;;;;;;;28.33;42.12891;932.4725;;;;
2022/08/16 12:38:38;;;;;;;2.4;1.7;;;;;;;28.38;42.77637;932.5286;;;;
2022/08/16 12:41:03;;;;;;;3.1;1.8;;;;;;;28.87;41.06055;932.4573;;;;
2022/08/16 12:43:31;;;;;;;2.5;1.8;;;;;;;28.8;41.31641;932.4575;;;;
2022/08/16 12:45:58;;;;;;;1.9;1.8;;;;;;;28.42;42.83887;932.5019;;;;
2022/08/16 12:50:50;;;;;;;1.9;1.8;;;;;;;28.46;43.5918;932.4417;;;;
2022/08/16 12:53:16;;;;;;;1.9;1.8;;;;;;;28.7;43.3291;932.4096;;;;
2022/08/16 12:55:45;;;;;;;2.2;1.8;;;;;;;29.13;40.71484;932.3131;;;;
2022/08/16 12:58:18;;;;;;;1.9;1.8;;;;;;;29.06;42.04199;932.3406;;;;
2022/08/16 13:00:47;;;;;;;3;1.7;;;;;;;29.34;39.23242;932.3123;;;;
2022/08/16 13:03:55;;;;;;;1.8;1.7;;;;;;;29.5;38.69922;932.3033;;;;
2022/08/16 13:06:09;;;;;;;1.8;1.7;;;;;;;29.88;36.83398;932.2556;;;;
2022/08/16 13:08:35;;;;;;;3.2;1.9;;;;;;;29.98;37.68945;932.2281;;;;
2022/08/16 13:11:00;;;;;;;2.7;1.7;;;;;;;30.08;38.60547;932.22;;;;
2022/08/16 13:13:25;;;;;;;2.6;1.8;;;;;;;30.06;40.32129;932.2564;;;;
2022/08/16 13:15:56;;;;;;;2.1;1.7;;;;;;;30.16;37.10742;932.2294;;;;
2022/08/16 13:18:25;;;;;;;2.7;2.1;;;;;;;30.24;37.43652;932.1922;;;;
2022/08/16 13:20:50;;;;;;;1.8;1.7;;;;;;;29.81;38.06934;932.2001;;;;
2022/08/16 13:23:17;;;;;;;1.9;1.8;;;;;;;29.45;41.67383;932.1489;;;;
2022/08/16 13:25:42;;;;;;;1.9;1.8;;;;;;;28.7;42.53125;932.2008;;;;
2022/08/16 13:28:08;;;;;;;2.6;1.9;;;;;;;28.78;42.45703;932.1439;;;;
2022/08/16 13:30:33;;;;;;;2.2;2;;;;;;;28.91;42.36133;932.1036;;;;
2022/08/16 13:33:02;;;;;;;2;1.8;;;;;;;29.24;39.02148;932.1049;;;;
2022/08/16 13:35:27;;;;;;;2.1;1.9;;;;;;;29.07;41.00781;932.0577;;;;
2022/08/16 13:37:54;;;;;;;3.7;1.9;;;;;;;29.32;39.39844;932.1166;;;;
2022/08/16 13:40:19;;;;;;;2.1;1.8;;;;;;;29.47;40.90039;932.1047;;;;
2022/08/16 13:42:44;;;;;;;2.5;1.9;;;;;;;29.46;39.32715;932.1534;;;;
2022/08/16 13:45:13;;;;;;;2.8;2.1;;;;;;;29.09;44.2002;932.1504;;;;
2022/08/16 13:47:44;;;;;;;2;1.8;;;;;;;28.68;42.08984;932.0924;;;;
2022/08/16 13:50:18;;;;;;;1.8;1.7;;;;;;;28.68;41.24512;932.1105;;;;
2022/08/16 13:52:46;;;;;;;1.9;1.7;;;;;;;28.96;39.52051;932.1206;;;;
2022/08/16 13:55:18;;;;;;;1.8;1.7;;;;;;;29.13;39.04785;932.0636;;;;
2022/08/16 13:57:46;;;;;;;1.7;1.6;;;;;;;28.62;43.10742;932.0737;;;;
2022/08/16 14:00:13;;;;;;;2.1;1.9;;;;;;;28.31;43.12598;931.993;;;;
2022/08/16 14:02:39;;;;;;;2.1;1.9;;;;;;;28.47;41.07227;931.9957;;;;
2022/08/16 14:05:04;;;;;;;1.8;1.7;;;;;;;28.69;41.47266;931.9816;;;;
2022/08/16 14:07:33;;;;;;;2;1.8;;;;;;;29;39.7627;931.9753;;;;
2022/08/16 14:10:06;;;;;;;2.5;1.9;;;;;;;29.14;40.29883;931.9595;;;;
2022/08/16 14:18:15;;;;;;;2.3;1.9;;;;;;;29.2;41.77051;931.9684;;;;
2022/08/16 14:20:44;;;;;;;2.3;1.8;;;;;;;29.18;41.99414;931.9342;;;;
2022/08/16 14:23:09;;;;;;;2.3;1.8;;;;;;;29.19;41.10156;931.8728;;;;
2022/08/16 14:25:38;;;;;;;2.6;1.8;;;;;;;29;42.20313;931.9484;;;;
2022/08/16 14:28:02;;;;;;;1.9;1.8;;;;;;;28.97;41.73633;931.9661;;;;
2022/08/16 14:30:32;;;;;;;2;1.8;;;;;;;28.98;39.51172;931.9407;;;;
2022/08/16 14:33:03;;;;;;;3;2;;;;;;;28.8;40.6377;931.9342;;;;
2022/08/16 14:35:35;;;;;;;1.9;1.8;;;;;;;28.62;40.89551;931.9673;;;;
2022/08/16 14:38:00;;;;;;;2.2;2;;;;;;;28.57;43.03125;931.9086;;;;
2022/08/16 14:40:28;;;;;;;2.4;2.2;;;;;;;28.44;41.47363;931.93;;;;
2022/08/16 14:42:52;;;;;;;1.9;1.7;;;;;;;28.52;41.56445;931.9587;;;;
2022/08/16 14:45:21;;;;;;;2.6;2.1;;;;;;;28.73;40.35742;931.9475;;;;
2022/08/16 14:47:46;;;;;;;2.2;2;;;;;;;28.71;41.97363;931.9637;;;;
2022/08/16 14:50:18;;;;;;;2.2;1.8;;;;;;;28.56;40.49707;931.9637;;;;
2022/08/16 14:52:46;;;;;;;3;1.8;;;;;;;28.61;39.52637;931.9614;;;;
2022/08/16 14:55:11;;;;;;;4.8;2;;;;;;;28.73;40.04883;931.9547;;;;
2022/08/16 14:57:36;;;;;;;2.4;2;;;;;;;28.84;40.24902;931.9703;;;;
2022/08/16 15:00:03;;;;;;;2.9;2.1;;;;;;;28.9;40.54004;931.9426;;;;
2022/08/16 15:02:28;;;;;;;4.4;1.9;;;;;;;28.91;40.31445;931.9026;;;;
2022/08/16 15:07:27;;;;;;;3.1;2;;;;;;;28.89;39.22949;931.9378;;;;
2022/08/16 15:09:58;;;;;;;3.3;2.1;;;;;;;28.86;41.2627;931.9617;;;;
2022/08/16 15:12:23;;;;;;;2.1;1.8;;;;;;;28.83;39.12793;931.9827;;;;
2022/08/16 15:14:52;;;;;;;2.1;1.9;;;;;;;28.7;39.67676;931.9398;;;;
2022/08/16 15:17:16;;;;;;;2.1;1.9;;;;;;;28.72;38.53613;931.9456;;;;
2022/08/16 15:19:48;;;;;;;2.3;1.8;;;;;;;28.74;38.74121;931.9786;;;;
2022/08/16 15:22:12;;;;;;;2.2;1.7;;;;;;;28.76;38.95605;932.0447;;;;
2022/08/16 15:24:38;;;;;;;2.5;1.9;;;;;;;28.78;38.78027;932.0095;;;;
2022/08/16 15:27:02;;;;;;;1.8;1.7;;;;;;;28.77;38.88574;931.9844;;;;
2022/08/16 15:29:32;;;;;;;2.3;2.1;;;;;;;28.68;38.65137;932.0285;;;;
2022/08/16 15:32:00;;;;;;;2.3;2.1;;;;;;;28.63;38.49316;932.0734;;;;
2022/08/16 15:34:32;;;;;;;2.2;2;;;;;;;28.63;38.98047;932.1069;;;;
2022/08/16 15:37:00;;;;;;;2.3;1.9;;;;;;;28.62;38.89648;932.0103;;;;
2022/08/16 15:39:25;;;;;;;4;2.4;;;;;;;28.45;39.73926;932.0839;;;;
2022/08/16 15:42:02;;;;;;;3.6;1.8;;;;;;;28.53;40.03027;932.0563;;;;
2022/08/16 15:44:34;;;;;;;1.9;1.8;;;;;;;28.53;40.10156;932.0413;;;;
2022/08/16 15:46:52;;;;;;;2.2;1.9;;;;;;;28.41;38.93848;932.0538;;;;
2022/08/16 15:52:53;;;;;;;2.4;1.8;;;;;;;28.01;41.0293;932.0455;;;;
2022/08/16 15:55:24;;;;;;;2;1.8;;;;;;;28.1;40.5625;932.017;;;;
2022/08/16 15:57:53;;;;;;;2.2;2;;;;;;;28.02;40.31738;932.0497;;;;
2022/08/16 16:00:19;;;;;;;5;1.9;;;;;;;28.06;40.42871;932.0187;;;;
2022/08/16 16:02:45;;;;;;;2.4;2.2;;;;;;;28.01;39.10547;932.0072;;;;
2022/08/16 16:05:10;;;;;;;3.3;2.1;;;;;;;28.03;39.57031;932.0637;;;;
2022/08/16 16:07:40;;;;;;;2;1.7;;;;;;;27.92;41.04492;932.0583;;;;